Time;durP1;ratioP1;P1;durP2;ratioP2;P2;SDS_P1;SDS_P2;PMS_P1;PMS_P2;Temp;Humidity;BMP_temperature;BMP_pressure;BME280_temperature;BME280_humidity;BME280_pressure;Samples;Min_cycle;Max_cycle;Signal;HPM_P1;HPM_P2
2021/03/02 00:01:11;;;;;;;135.30;64.30;;;;;;;2.59;100.00;101905.02;1628103;85;21661;-68
2021/03/02 00:03:38;;;;;;;127.17;59.20;;;;;;;2.57;100.00;101910.75;1643171;84;21159;-68
2021/03/02 00:06:05;;;;;;;136.10;61.80;;;;;;;2.60;100.00;101921.06;1643606;84;21216;-68
2021/03/02 00:08:31;;;;;;;;;;;;;;;2.65;100.00;101909.98;1644352;84;21241;-68
2021/03/02 00:11:00;;;;;;;132.10;59.77;;;;;;;2.63;100.00;101919.64;1647511;84;21175;-68
2021/03/02 00:13:30;;;;;;;140.47;62.30;;;;;;;2.54;100.00;101923.45;1647631;84;21222;-69
2021/03/02 00:15:59;;;;;;;149.07;64.07;;;;;;;2.48;100.00;101940.17;1644402;84;21262;-67
2021/03/02 00:18:27;;;;;;;149.95;68.40;;;;;;;2.50;100.00;101913.60;1644487;84;21252;-68
2021/03/02 00:20:58;;;;;;;144.72;68.97;;;;;;;2.56;100.00;101928.60;1641592;84;21214;-67
2021/03/02 00:23:30;;;;;;;156.30;68.05;;;;;;;2.59;100.00;101918.05;1642381;84;21746;-68
2021/03/02 00:25:58;;;;;;;146.80;66.87;;;;;;;2.57;100.00;101926.41;1643729;85;21261;-68
2021/03/02 00:28:26;;;;;;;154.45;65.87;;;;;;;2.64;100.00;101903.93;1644875;84;22105;-68
2021/03/02 00:30:52;;;;;;;135.85;66.30;;;;;;;2.75;100.00;101913.94;1640756;84;21230;-67
2021/03/02 00:33:19;;;;;;;146.93;63.98;;;;;;;2.74;100.00;101921.36;1642873;84;21271;-67
2021/03/02 00:35:44;;;;;;;140.40;64.55;;;;;;;2.72;100.00;101915.36;1644736;84;21630;-68
2021/03/02 00:38:10;;;;;;;127.60;66.87;;;;;;;2.66;100.00;101909.09;1643264;84;24988;-67
2021/03/02 00:40:36;;;;;;;143.73;64.77;;;;;;;2.70;100.00;101911.95;1643282;84;20996;-66
2021/03/02 00:43:02;;;;;;;122.17;58.35;;;;;;;2.64;100.00;101902.62;1643650;85;28350;-68
2021/03/02 00:45:27;;;;;;;138.50;63.48;;;;;;;2.66;100.00;101893.44;1644523;85;25392;-68
2021/03/02 00:47:53;;;;;;;125.13;57.87;;;;;;;2.65;100.00;101895.64;1642882;85;21207;-68
2021/03/02 00:50:19;;;;;;;121.03;55.20;;;;;;;2.55;100.00;101889.08;1644418;84;22552;-68
2021/03/02 00:52:45;;;;;;;130.65;59.50;;;;;;;2.53;100.00;101880.02;1618389;86;21208;-69
2021/03/02 00:55:11;;;;;;;137.90;63.52;;;;;;;2.51;100.00;101874.02;1641290;85;27162;-69
2021/03/02 00:57:37;;;;;;;138.50;60.48;;;;;;;2.44;100.00;101868.22;1644465;85;21215;-68
2021/03/02 01:00:05;;;;;;;139.75;61.92;;;;;;;2.38;100.00;101877.58;1640032;85;21739;-68
2021/03/02 01:02:31;;;;;;;126.67;57.53;;;;;;;2.28;100.00;101850.16;1644979;85;21089;-69
2021/03/02 01:04:56;;;;;;;125.80;56.87;;;;;;;2.28;100.00;101848.86;1641924;85;21049;-69
2021/03/02 01:07:22;;;;;;;116.10;54.13;;;;;;;2.27;100.00;101881.04;1642275;85;26778;-69
2021/03/02 01:09:48;;;;;;;133.65;60.17;;;;;;;2.25;100.00;101843.77;1644133;85;25874;-69
2021/03/02 01:12:14;;;;;;;128.27;57.53;;;;;;;2.31;100.00;101843.53;1642440;85;21450;-69
2021/03/02 01:14:39;;;;;;;111.73;51.13;;;;;;;2.28;100.00;101861.89;1648296;85;25493;-69
2021/03/02 01:17:05;;;;;;;111.23;51.30;;;;;;;2.27;100.00;101854.97;1641675;85;21592;-69
2021/03/02 01:19:31;;;;;;;111.15;51.37;;;;;;;2.27;100.00;101855.84;1642101;84;28646;-70
2021/03/02 01:21:57;;;;;;;101.50;48.60;;;;;;;2.37;100.00;101864.14;1641823;85;27085;-69
2021/03/02 01:24:22;;;;;;;98.17;47.93;;;;;;;2.37;100.00;101865.45;1644710;85;21336;-69
2021/03/02 01:26:48;;;;;;;107.57;48.13;;;;;;;2.53;100.00;101859.16;1643395;84;21649;-69
2021/03/02 01:29:14;;;;;;;97.20;47.43;;;;;;;2.61;100.00;101856.23;1642159;84;21016;-69
2021/03/02 01:31:39;;;;;;;102.77;47.87;;;;;;;2.51;100.00;101854.00;1646819;84;27797;-68
2021/03/02 01:34:05;;;;;;;99.03;49.03;;;;;;;2.61;100.00;101847.11;1640595;85;26815;-68
2021/03/02 01:36:31;;;;;;;103.23;48.03;;;;;;;2.52;100.00;101848.35;1640604;84;21318;-69
2021/03/02 01:38:57;;;;;;;99.47;49.23;;;;;;;2.54;100.00;101846.98;1642740;85;21678;-68
2021/03/02 01:41:22;;;;;;;97.97;46.80;;;;;;;2.51;100.00;101852.70;1642805;85;20966;-69
2021/03/02 01:43:48;;;;;;;102.50;47.00;;;;;;;2.46;100.00;101836.40;1641112;85;27635;-69
2021/03/02 01:46:14;;;;;;;105.37;49.93;;;;;;;2.46;100.00;101832.95;1642619;85;25611;-69
2021/03/02 01:48:40;;;;;;;101.20;46.80;;;;;;;2.35;100.00;101852.94;1642202;85;22339;-69
2021/03/02 01:51:07;;;;;;;98.07;46.20;;;;;;;2.35;100.00;101837.30;1641352;85;21239;-69
2021/03/02 01:53:33;;;;;;;102.78;45.33;;;;;;;2.39;100.00;101837.55;1642368;85;21232;-70
2021/03/02 01:55:59;;;;;;;104.67;49.13;;;;;;;2.38;100.00;101830.66;1641996;85;28285;-69
2021/03/02 01:58:26;;;;;;;106.50;49.53;;;;;;;2.34;100.00;101816.87;1642471;85;27554;-69
2021/03/02 02:01:00;;;;;;;106.67;48.20;;;;;;;2.32;100.00;101812.65;1626912;86;23731;-69
2021/03/02 02:04:04;;;;;;;99.03;47.30;;;;;;;2.31;100.00;101817.45;1630304;86;21286;-69
2021/03/02 02:06:48;;;;;;;96.95;45.20;;;;;;;2.35;100.00;101806.01;1616662;86;21730;-69
2021/03/02 02:09:47;;;;;;;99.55;45.70;;;;;;;2.31;100.00;101818.30;1623238;86;21649;-69
2021/03/02 02:12:27;;;;;;;112.20;48.38;;;;;;;2.30;100.00;101826.18;1626030;86;21200;-68
2021/03/02 02:15:07;;;;;;;93.65;42.70;;;;;;;2.29;100.00;101814.08;1610126;86;21936;-69
2021/03/02 02:17:39;;;;;;;104.50;46.70;;;;;;;2.30;100.00;101805.33;1621049;86;21226;-68
2021/03/02 02:20:10;;;;;;;97.15;47.10;;;;;;;2.28;100.00;101817.58;1623684;86;21803;-69
2021/03/02 02:23:15;;;;;;;103.80;46.63;;;;;;;2.36;100.00;101802.47;1621387;86;21199;-69
2021/03/02 02:26:04;;;;;;;110.70;46.73;;;;;;;2.39;100.00;101795.83;1623476;86;21655;-68
2021/03/02 02:28:31;;;;;;;100.80;45.92;;;;;;;2.27;100.00;101791.11;1629168;86;21747;-67
2021/03/02 02:30:58;;;;;;;106.65;44.98;;;;;;;2.29;100.00;101794.06;1625032;86;28707;-68
2021/03/02 02:33:27;;;;;;;108.63;48.20;;;;;;;2.30;100.00;101782.73;1627816;86;21287;-68
2021/03/02 02:35:53;;;;;;;99.17;46.42;;;;;;;2.30;100.00;101784.04;1625826;86;21236;-68
2021/03/02 02:38:20;;;;;;;121.25;50.63;;;;;;;2.32;100.00;101794.41;1623536;86;26746;-68
2021/03/02 02:40:48;;;;;;;118.85;46.68;;;;;;;2.33;100.00;101802.59;1628702;86;21778;-67
2021/03/02 02:43:13;;;;;;;98.00;50.83;;;;;;;2.30;100.00;101797.50;1626439;86;21231;-68
2021/03/02 02:45:39;;;;;;;111.93;46.33;;;;;;;2.33;100.00;101790.86;1621140;86;20995;-68
2021/03/02 02:48:06;;;;;;;102.97;45.43;;;;;;;2.35;100.00;101790.37;1620560;86;28931;-68
2021/03/02 02:50:32;;;;;;;123.85;50.25;;;;;;;2.46;100.00;101798.59;1629249;86;21237;-67
2021/03/02 02:52:59;;;;;;;120.40;53.70;;;;;;;2.54;100.00;101797.44;1623461;86;21657;-68
2021/03/02 02:55:35;;;;;;;112.05;51.23;;;;;;;2.53;100.00;101808.30;1622745;86;21279;-68
2021/03/02 02:58:01;;;;;;;121.82;50.28;;;;;;;2.57;100.00;101797.31;1625424;86;22478;-68
2021/03/02 03:00:27;;;;;;;100.45;52.35;;;;;;;2.60;100.00;101793.27;1634362;85;28823;-68
2021/03/02 03:02:53;;;;;;;110.83;48.70;;;;;;;2.52;100.00;101805.33;1642218;84;28053;-68
2021/03/02 03:05:21;;;;;;;120.83;51.30;;;;;;;2.50;100.00;101803.21;1619389;86;22474;-68
2021/03/02 03:07:52;;;;;;;116.33;52.17;;;;;;;2.48;100.00;101817.62;1642711;85;21239;-68
2021/03/02 03:10:17;;;;;;;120.92;54.98;;;;;;;2.54;100.00;101798.74;1640997;84;21227;-68
2021/03/02 03:12:45;;;;;;;109.32;49.18;;;;;;;2.56;100.00;101794.30;1645155;84;27250;-67
2021/03/02 03:15:13;;;;;;;116.10;51.60;;;;;;;2.56;100.00;101803.43;1643686;84;21276;-68
2021/03/02 03:17:48;;;;;;;109.87;50.03;;;;;;;2.53;100.00;101816.59;1642644;84;21815;-68
2021/03/02 03:20:14;;;;;;;118.77;53.50;;;;;;;2.55;100.00;101798.68;1642532;84;21242;-67
2021/03/02 03:22:40;;;;;;;121.47;52.17;;;;;;;2.61;100.00;101800.16;1641515;84;21167;-68
2021/03/02 03:25:07;;;;;;;113.32;51.30;;;;;;;2.56;100.00;101812.09;1639635;84;28786;-68
2021/03/02 03:27:34;;;;;;;118.10;50.08;;;;;;;2.65;100.00;101800.44;1644214;84;21663;-68
2021/03/02 03:30:00;;;;;;;102.70;44.42;;;;;;;2.59;100.00;101809.82;1642087;84;21316;-68
2021/03/02 03:32:26;;;;;;;109.00;51.07;;;;;;;2.61;100.00;101817.12;1642719;84;24560;-68
2021/03/02 03:34:52;;;;;;;118.72;53.02;;;;;;;2.56;100.00;101809.48;1642151;84;21611;-68
2021/03/02 03:37:17;;;;;;;117.60;53.87;;;;;;;2.59;100.00;101805.91;1642433;84;28111;-68
2021/03/02 03:39:43;;;;;;;110.50;49.90;;;;;;;2.65;100.00;101806.49;1600352;87;26197;-69
2021/03/02 03:42:09;;;;;;;115.07;52.60;;;;;;;2.67;100.00;101806.43;1641382;84;21775;-68
2021/03/02 03:44:35;;;;;;;114.30;51.70;;;;;;;2.66;100.00;101799.54;1644914;84;23590;-68
2021/03/02 03:47:03;;;;;;;111.50;51.57;;;;;;;2.62;100.00;101797.95;1643682;84;21363;-69
2021/03/02 03:49:29;;;;;;;126.22;55.48;;;;;;;2.65;100.00;101800.44;1641480;84;21235;-68
2021/03/02 03:51:54;;;;;;;129.00;54.15;;;;;;;2.64;100.00;101792.21;1641889;84;25814;-68
2021/03/02 03:54:21;;;;;;;123.53;54.03;;;;;;;2.63;100.00;101804.88;1639097;84;21392;-68
2021/03/02 03:56:46;;;;;;;106.15;50.30;;;;;;;2.62;100.00;101812.30;1643820;85;22401;-68
2021/03/02 03:59:12;;;;;;;117.60;53.13;;;;;;;2.66;100.00;101797.77;1644049;84;20966;-68
2021/03/02 04:01:38;;;;;;;126.60;57.17;;;;;;;2.64;100.00;101797.42;1669090;84;27226;-68
2021/03/02 04:04:04;;;;;;;123.02;54.38;;;;;;;2.62;100.00;101797.95;1668750;84;25619;-69
2021/03/02 04:06:33;;;;;;;136.80;54.73;;;;;;;2.68;100.00;101788.58;1669999;84;21589;-68
2021/03/02 04:08:58;;;;;;;114.00;57.43;;;;;;;2.65;100.00;101783.48;1668474;84;21200;-68
2021/03/02 04:11:25;;;;;;;127.27;54.73;;;;;;;2.69;100.00;101799.41;1669177;84;20975;-68
2021/03/02 04:13:51;;;;;;;127.97;52.63;;;;;;;2.70;100.00;101782.83;1666615;84;21675;-68
2021/03/02 04:16:16;;;;;;;129.00;56.42;;;;;;;2.75;100.00;101790.02;1668721;84;25645;-69
2021/03/02 04:18:42;;;;;;;118.30;54.80;;;;;;;2.69;100.00;101790.28;1669097;84;22420;-69
2021/03/02 04:21:08;;;;;;;126.80;53.80;;;;;;;2.69;100.00;101770.72;1671400;84;23582;-69
2021/03/02 04:23:34;;;;;;;125.67;55.63;;;;;;;2.75;100.00;101765.23;1668370;84;20971;-69
2021/03/02 04:25:59;;;;;;;131.47;56.40;;;;;;;2.75;100.00;101773.06;1667997;84;26732;-69
2021/03/02 04:28:25;;;;;;;116.07;57.03;;;;;;;2.67;100.00;101766.87;1668489;84;25649;-69
2021/03/02 04:30:51;;;;;;;128.63;55.63;;;;;;;2.72;100.00;101759.28;1669551;84;22232;-69
2021/03/02 04:33:17;;;;;;;126.87;56.47;;;;;;;2.66;100.00;101763.02;1668593;84;22575;-69
2021/03/02 04:35:43;;;;;;;119.82;54.15;;;;;;;2.74;100.00;101765.30;1670761;84;21205;-68
2021/03/02 04:38:09;;;;;;;129.53;58.70;;;;;;;2.70;100.00;101764.56;1669850;84;26891;-68
2021/03/02 04:40:35;;;;;;;132.17;56.33;;;;;;;2.65;100.00;101741.75;1669685;84;27176;-68
2021/03/02 04:43:00;;;;;;;134.75;60.00;;;;;;;2.70;100.00;101760.66;1668645;84;21793;-69
2021/03/02 04:45:26;;;;;;;135.20;60.00;;;;;;;2.72;100.00;101744.50;1668515;84;23528;-68
2021/03/02 04:47:52;;;;;;;130.83;57.67;;;;;;;2.75;100.00;101753.94;1670879;84;20967;-68
2021/03/02 04:50:18;;;;;;;136.55;60.60;;;;;;;2.76;100.00;101735.61;1668157;85;28257;-68
2021/03/02 04:52:44;;;;;;;132.03;59.15;;;;;;;2.74;100.00;101746.58;1668303;85;25493;-69
2021/03/02 04:55:11;;;;;;;130.37;55.35;;;;;;;2.74;100.00;101737.45;1668634;84;21831;-68
2021/03/02 04:57:37;;;;;;;132.75;55.20;;;;;;;2.76;100.00;101747.81;1669182;85;21276;-68
2021/03/02 05:00:06;;;;;;;129.90;60.17;;;;;;;2.81;100.00;101749.32;1664894;84;21201;-68
2021/03/02 05:02:31;;;;;;;131.05;57.45;;;;;;;2.84;100.00;101743.97;1652495;85;21256;-68
2021/03/02 05:04:57;;;;;;;127.00;55.45;;;;;;;2.87;100.00;101745.14;1649443;85;25668;-68
2021/03/02 05:07:23;;;;;;;125.40;57.23;;;;;;;2.92;100.00;101738.86;1647044;85;21390;-69
2021/03/02 05:09:48;;;;;;;134.53;59.53;;;;;;;2.90;100.00;101740.23;1649554;85;25464;-69
2021/03/02 05:12:14;;;;;;;112.53;48.37;;;;;;;2.84;100.00;101751.80;1649128;85;21880;-69
2021/03/02 05:14:40;;;;;;;118.00;54.75;;;;;;;2.93;100.00;101736.65;1654739;85;28581;-69
2021/03/02 05:17:06;;;;;;;122.72;55.48;;;;;;;2.96;100.00;101735.20;1649412;85;25618;-69
2021/03/02 05:19:31;;;;;;;127.60;53.10;;;;;;;2.86;100.00;101726.95;1648998;85;21743;-69
2021/03/02 05:21:58;;;;;;;111.90;57.13;;;;;;;2.88;100.00;101753.34;1650340;85;22862;-69
2021/03/02 05:24:24;;;;;;;109.63;58.15;;;;;;;2.95;100.00;101725.67;1649630;85;21238;-70
2021/03/02 05:26:50;;;;;;;123.58;52.55;;;;;;;2.94;100.00;101732.67;1650625;85;28439;-69
2021/03/02 05:29:16;;;;;;;129.38;56.05;;;;;;;2.99;100.00;101725.94;1649390;84;21669;-69
2021/03/02 05:31:42;;;;;;;114.30;57.95;;;;;;;2.93;100.00;101715.77;1649005;85;22278;-70
2021/03/02 05:34:08;;;;;;;122.97;54.73;;;;;;;2.95;100.00;101731.77;1652546;85;25490;-71
2021/03/02 05:36:35;;;;;;;117.80;52.97;;;;;;;3.03;100.00;101719.64;1651592;85;21000;-70
2021/03/02 05:39:02;;;;;;;130.67;54.08;;;;;;;3.02;100.00;101731.02;1648106;85;21485;-69
2021/03/02 05:41:27;;;;;;;123.50;54.03;;;;;;;3.04;100.00;101734.41;1650831;85;21259;-70
2021/03/02 05:43:53;;;;;;;116.83;57.93;;;;;;;3.07;100.00;101744.70;1652276;84;21197;-70
2021/03/02 05:46:22;;;;;;;127.00;55.17;;;;;;;3.11;100.00;101733.22;1649119;84;24583;-70
2021/03/02 05:48:47;;;;;;;115.35;59.30;;;;;;;3.10;100.00;101723.69;1650890;85;21275;-69
2021/03/02 05:51:13;;;;;;;133.50;56.42;;;;;;;3.05;100.00;101736.11;1652794;85;28451;-71
2021/03/02 05:53:39;;;;;;;134.90;59.17;;;;;;;3.04;100.00;101733.09;1650826;85;25583;-70
2021/03/02 05:56:08;;;;;;;106.07;55.17;;;;;;;3.02;100.00;101725.80;1649930;85;21919;-70
2021/03/02 05:58:36;;;;;;;132.60;57.83;;;;;;;3.03;100.00;101737.92;1620443;86;21230;-69
2021/03/02 06:01:04;;;;;;;134.45;59.65;;;;;;;3.04;100.00;101727.88;1649140;84;21633;-70
2021/03/02 06:03:34;;;;;;;117.72;58.90;;;;;;;3.05;100.00;101724.36;1645169;85;21264;-71
2021/03/02 06:06:00;;;;;;;122.17;55.50;;;;;;;3.05;100.00;101729.11;1641348;85;21246;-68
2021/03/02 06:08:26;;;;;;;116.50;56.17;;;;;;;3.02;100.00;101733.63;1641597;86;21380;-68
2021/03/02 06:10:52;;;;;;;122.57;53.23;;;;;;;3.02;100.00;101721.89;1647123;84;25584;-68
2021/03/02 06:13:28;;;;;;;116.80;53.43;;;;;;;2.98;100.00;101737.28;1649253;84;23816;-70
2021/03/02 06:15:56;;;;;;;125.00;53.50;;;;;;;3.00;100.00;101732.87;1642846;85;21199;-69
2021/03/02 06:18:22;;;;;;;114.95;55.30;;;;;;;2.95;100.00;101728.28;1644982;86;22320;-69
2021/03/02 06:20:48;;;;;;;126.40;55.33;;;;;;;2.97;100.00;101720.79;1641836;84;22257;-69
2021/03/02 06:23:27;;;;;;;106.50;49.53;;;;;;;3.00;100.00;101722.42;1644209;85;21224;-69
2021/03/02 06:25:55;;;;;;;117.05;52.70;;;;;;;2.99;100.00;101722.02;1644154;86;21247;-69
2021/03/02 06:28:42;;;;;;;112.57;50.20;;;;;;;3.03;100.00;101730.09;1643015;85;21247;-68
2021/03/02 06:31:29;;;;;;;114.85;50.95;;;;;;;3.13;100.00;101739.21;1643837;85;21235;-68
2021/03/02 06:34:18;;;;;;;120.95;49.15;;;;;;;3.11;100.00;101737.58;1641852;84;21854;-68
2021/03/02 06:37:03;;;;;;;115.17;55.25;;;;;;;3.13;100.00;101733.16;1644035;85;21239;-68
2021/03/02 06:39:39;;;;;;;126.25;56.15;;;;;;;3.10;100.00;101738.52;1642597;85;21247;-68
2021/03/02 06:42:21;;;;;;;113.47;51.48;;;;;;;3.05;100.00;101729.11;1640298;85;21665;-68
2021/03/02 06:44:54;;;;;;;124.30;55.03;;;;;;;3.06;100.00;101726.03;1643966;85;21247;-69
2021/03/02 06:47:41;;;;;;;115.25;52.27;;;;;;;3.12;100.00;101725.77;1620744;86;21263;-69
2021/03/02 06:50:18;;;;;;;124.42;49.60;;;;;;;3.05;100.00;101730.42;1640252;84;21255;-68
2021/03/02 06:52:44;;;;;;;119.00;50.60;;;;;;;3.05;100.00;101723.89;1641132;85;21182;-68
2021/03/02 06:55:26;;;;;;;109.12;53.40;;;;;;;3.08;100.00;101719.44;1642741;84;28925;-68
2021/03/02 06:57:52;;;;;;;123.35;54.63;;;;;;;3.04;100.00;101713.52;1645478;84;21274;-68
2021/03/02 07:00:33;;;;;;;116.08;52.17;;;;;;;3.04;100.00;101717.44;1644606;84;21333;-66
2021/03/02 07:02:59;;;;;;;119.00;53.28;;;;;;;3.11;100.00;101688.85;1651802;84;21548;-67
2021/03/02 07:05:24;;;;;;;123.67;55.67;;;;;;;3.13;100.00;101684.40;1652593;85;22848;-67
2021/03/02 07:07:56;;;;;;;130.57;59.20;;;;;;;3.10;100.00;101692.37;1653302;84;27816;-67
2021/03/02 07:10:23;;;;;;;135.43;57.75;;;;;;;3.20;100.00;101679.73;1652565;84;21223;-68
2021/03/02 07:12:51;;;;;;;133.30;58.20;;;;;;;3.18;100.00;101712.44;1653912;84;21666;-67
2021/03/02 07:15:18;;;;;;;126.22;54.18;;;;;;;3.20;100.00;101691.05;1651332;84;21295;-68
2021/03/02 07:17:45;;;;;;;137.20;56.15;;;;;;;3.22;100.00;101710.08;1656387;84;21237;-68
2021/03/02 07:20:13;;;;;;;;;;;;;;;3.19;100.00;101696.33;1655963;84;21207;-68
2021/03/02 07:22:39;;;;;;;127.82;52.38;;;;;;;3.24;100.00;101687.36;1654927;84;24615;-69
2021/03/02 07:25:09;;;;;;;155.10;57.78;;;;;;;3.26;100.00;101712.55;1654632;84;21236;-69
2021/03/02 07:27:39;;;;;;;125.78;58.70;;;;;;;3.29;100.00;101691.53;1656555;84;21252;-68
2021/03/02 07:30:06;;;;;;;132.87;60.60;;;;;;;3.19;100.00;101691.95;1656445;85;21238;-68
2021/03/02 07:32:32;;;;;;;127.75;59.88;;;;;;;3.26;100.00;101682.06;1651379;84;21699;-69
2021/03/02 07:34:58;;;;;;;146.95;55.60;;;;;;;3.23;100.00;101676.55;1634207;85;25533;-66
2021/03/02 07:37:23;;;;;;;137.77;57.38;;;;;;;3.30;100.00;101689.31;1652910;84;21386;-67
2021/03/02 07:40:10;;;;;;;115.93;56.53;;;;;;;3.36;100.00;101689.03;1655434;84;25530;-68
2021/03/02 07:42:36;;;;;;;127.82;56.05;;;;;;;3.37;100.00;101706.38;1651015;84;21274;-69
2021/03/02 07:45:10;;;;;;;131.77;51.87;;;;;;;3.46;100.00;101709.86;1654841;85;21653;-68
2021/03/02 07:47:53;;;;;;;121.42;56.33;;;;;;;3.44;100.00;101719.55;1655045;84;21192;-66
2021/03/02 07:50:25;;;;;;;117.67;54.60;;;;;;;3.55;100.00;101714.66;1654490;85;21630;-66
2021/03/02 07:53:20;;;;;;;114.80;56.08;;;;;;;3.68;100.00;101741.07;1649713;85;21251;-68
2021/03/02 07:55:59;;;;;;;115.50;54.53;;;;;;;3.47;100.00;101740.30;1652144;85;21285;-69
2021/03/02 07:58:25;;;;;;;120.67;55.10;;;;;;;3.54;100.00;101715.59;1653305;84;21243;-68
2021/03/02 08:00:51;;;;;;;137.62;59.23;;;;;;;3.57;100.00;101718.06;1656128;85;26788;-68
2021/03/02 08:03:27;;;;;;;123.72;58.38;;;;;;;3.59;100.00;101731.89;1654953;85;21357;-68
2021/03/02 08:06:03;;;;;;;135.12;55.43;;;;;;;3.67;100.00;101704.09;1652940;85;21753;-67
2021/03/02 08:08:29;;;;;;;112.83;54.45;;;;;;;3.73;100.00;101703.80;1652116;85;21959;-68
2021/03/02 08:11:00;;;;;;;112.37;54.95;;;;;;;3.73;100.00;101723.88;1653101;85;21248;-68
2021/03/02 08:13:40;;;;;;;109.92;54.23;;;;;;;3.77;100.00;101700.58;1655434;84;21215;-68
2021/03/02 08:16:15;;;;;;;115.35;55.50;;;;;;;3.85;100.00;101698.43;1652322;85;21384;-68
2021/03/02 08:18:44;;;;;;;113.72;56.20;;;;;;;3.86;100.00;101723.66;1657534;84;21199;-69
2021/03/02 08:21:19;;;;;;;115.45;57.73;;;;;;;3.93;100.00;101719.83;1652122;84;21632;-68
2021/03/02 08:23:58;;;;;;;111.17;56.63;;;;;;;3.96;100.00;101717.51;1651891;84;21309;-68
2021/03/02 08:26:31;;;;;;;105.50;53.40;;;;;;;3.98;100.00;101734.42;1653120;84;21239;-68
2021/03/02 08:29:15;;;;;;;109.30;54.83;;;;;;;4.00;100.00;101722.15;1653248;84;21206;-70
2021/03/02 08:31:43;;;;;;;109.42;53.48;;;;;;;4.11;100.00;101712.84;1652968;84;21239;-68
2021/03/02 08:34:10;;;;;;;102.38;53.50;;;;;;;4.04;100.00;101711.91;1655584;84;21216;-70
2021/03/02 08:36:36;;;;;;;108.32;55.50;;;;;;;4.06;99.97;101724.47;1654080;84;21207;-68
2021/03/02 08:39:11;;;;;;;107.60;54.33;;;;;;;4.07;100.00;101705.23;1654649;84;26931;-68
2021/03/02 08:41:42;;;;;;;104.70;51.25;;;;;;;4.30;99.79;101706.70;1650685;85;21237;-68
2021/03/02 08:44:18;;;;;;;103.47;52.10;;;;;;;4.33;99.22;101713.55;1655277;84;21281;-68
2021/03/02 08:46:54;;;;;;;103.17;51.02;;;;;;;4.34;98.64;101715.26;1654548;84;21235;-68
2021/03/02 08:49:20;;;;;;;109.63;53.68;;;;;;;4.36;98.82;101716.02;1653957;84;21243;-67
2021/03/02 08:51:46;;;;;;;101.30;51.30;;;;;;;4.29;98.38;101729.40;1654766;84;21199;-68
2021/03/02 08:54:12;;;;;;;97.53;50.67;;;;;;;4.41;98.49;101721.85;1653537;84;21822;-68
2021/03/02 08:56:38;;;;;;;103.30;51.13;;;;;;;4.51;98.10;101725.70;1654165;84;27366;-67
2021/03/02 08:59:09;;;;;;;100.50;49.13;;;;;;;4.52;97.56;101732.61;1656066;84;23785;-68
2021/03/02 09:01:36;;;;;;;102.30;52.53;;;;;;;4.48;96.61;101748.09;1649166;84;21251;-68
2021/03/02 09:04:22;;;;;;;96.22;50.78;;;;;;;4.43;96.95;101759.27;1641226;85;21220;-68
2021/03/02 09:06:51;;;;;;;101.95;51.35;;;;;;;4.50;97.01;101734.47;1640776;84;21757;-68
2021/03/02 09:09:19;;;;;;;102.42;50.52;;;;;;;4.60;96.75;101736.14;1642440;85;21293;-69
2021/03/02 09:11:55;;;;;;;108.40;52.10;;;;;;;4.68;96.55;101728.77;1644734;85;21164;-68
2021/03/02 09:14:26;;;;;;;101.33;52.93;;;;;;;4.72;96.44;101749.08;1647290;85;21550;-68
2021/03/02 09:16:55;;;;;;;99.50;52.00;;;;;;;4.65;96.08;101735.00;1642972;85;21208;-67
2021/03/02 09:19:24;;;;;;;99.75;49.67;;;;;;;4.66;95.99;101763.31;1641982;85;22371;-68
2021/03/02 09:21:55;;;;;;;110.12;53.52;;;;;;;4.66;95.09;101740.62;1641201;85;21513;-67
2021/03/02 09:24:23;;;;;;;102.65;51.53;;;;;;;4.64;95.48;101773.85;1639374;85;21287;-68
2021/03/02 09:26:58;;;;;;;104.72;51.42;;;;;;;4.68;95.60;101744.00;1644418;85;21235;-68
2021/03/02 09:29:28;;;;;;;92.65;48.48;;;;;;;4.72;94.81;101760.85;1644624;85;21223;-69
2021/03/02 09:31:58;;;;;;;97.80;49.08;;;;;;;4.61;94.76;101780.55;1642359;85;21236;-68
2021/03/02 09:34:33;;;;;;;100.12;49.75;;;;;;;4.64;94.53;101741.14;1642214;85;21255;-69
2021/03/02 09:37:10;;;;;;;98.45;48.45;;;;;;;4.76;94.04;101742.30;1641874;85;21256;-69
2021/03/02 09:39:37;;;;;;;96.35;50.60;;;;;;;4.94;93.85;101757.52;1642992;85;21243;-70
2021/03/02 09:42:15;;;;;;;103.83;50.92;;;;;;;4.94;93.87;101744.44;1642709;85;21161;-70
2021/03/02 09:44:47;;;;;;;103.75;52.40;;;;;;;4.95;93.58;101744.80;1642640;85;21263;-70
2021/03/02 09:47:18;;;;;;;108.87;51.65;;;;;;;5.06;93.75;101746.02;1641997;85;21168;-72
2021/03/02 09:49:50;;;;;;;98.67;50.12;;;;;;;5.17;93.56;101746.28;1642308;85;21212;-70
2021/03/02 09:52:38;;;;;;;100.05;51.33;;;;;;;5.37;92.59;101734.27;1647980;84;21226;-70
2021/03/02 09:55:22;;;;;;;119.13;54.85;;;;;;;5.44;91.57;101743.10;1641142;85;21212;-68
2021/03/02 10:00:48;;;;;;;;;;;;;;;5.20;91.30;101750.92;1645963;85;21231;-69
2021/03/02 10:03:21;;;;;;;109.83;54.98;;;;;;;5.08;91.13;101767.72;1642913;84;20609;-69
2021/03/02 10:06:04;;;;;;;106.35;53.42;;;;;;;5.02;91.63;101768.43;1643633;85;21187;-68
2021/03/02 10:08:38;;;;;;;107.27;54.18;;;;;;;4.98;91.75;101760.34;1645929;85;21537;-69
2021/03/02 10:11:15;;;;;;;108.10;51.83;;;;;;;5.09;91.74;101756.33;1644424;85;21423;-67
2021/03/02 10:13:50;;;;;;;;;;;;;;;5.21;91.12;101755.68;1645061;85;21222;-69
2021/03/02 10:16:42;;;;;;;108.17;53.80;;;;;;;5.24;90.83;101749.45;1640386;85;20309;-69
2021/03/02 10:19:27;;;;;;;104.58;53.38;;;;;;;5.17;90.47;101758.07;1643577;84;21673;-69
2021/03/02 10:21:56;;;;;;;103.58;51.77;;;;;;;5.10;90.12;101743.62;1643672;84;21207;-68
2021/03/02 10:24:30;;;;;;;105.32;53.75;;;;;;;5.14;90.63;101740.77;1644330;84;21347;-69
2021/03/02 10:26:57;;;;;;;98.90;49.67;;;;;;;5.19;90.75;101722.19;1644085;85;21683;-68
2021/03/02 10:29:23;;;;;;;105.30;51.83;;;;;;;5.29;90.47;101727.30;1642396;84;21235;-69
2021/03/02 10:31:50;;;;;;;110.45;53.45;;;;;;;5.30;89.87;101739.48;1643973;84;21208;-68
2021/03/02 10:34:16;;;;;;;101.50;50.63;;;;;;;5.26;89.68;101716.98;1645601;84;21227;-68
2021/03/02 10:36:43;;;;;;;94.50;47.77;;;;;;;5.34;89.57;101720.50;1644585;84;21602;-69
2021/03/02 10:39:16;;;;;;;97.53;48.20;;;;;;;5.44;89.27;101728.25;1639116;84;21975;-69
2021/03/02 10:41:43;;;;;;;93.87;45.75;;;;;;;5.57;89.37;101718.77;1642882;84;21788;-69
2021/03/02 10:44:09;;;;;;;97.02;46.80;;;;;;;5.54;88.75;101768.72;1644235;84;21236;-70
2021/03/02 10:46:35;;;;;;;91.35;45.90;;;;;;;5.65;87.69;101719.66;1641310;84;21270;-70
2021/03/02 10:49:01;;;;;;;95.40;47.08;;;;;;;5.49;87.34;101710.97;1641242;85;21797;-69
2021/03/02 10:51:27;;;;;;;86.30;44.98;;;;;;;5.54;87.78;101745.61;1646037;84;27175;-69
2021/03/02 10:53:53;;;;;;;95.03;45.88;;;;;;;5.55;87.86;101701.46;1644541;84;21240;-69
2021/03/02 10:56:19;;;;;;;88.75;44.83;;;;;;;5.70;87.95;101702.36;1643002;84;28395;-69
2021/03/02 10:58:45;;;;;;;91.65;46.33;;;;;;;5.70;87.41;101713.70;1645354;84;21236;-69
2021/03/02 11:01:11;;;;;;;90.40;47.45;;;;;;;5.79;86.94;101705.77;1640822;84;22004;-69
2021/03/02 11:03:38;;;;;;;88.70;43.98;;;;;;;5.84;87.01;101692.41;1646131;84;27544;-68
2021/03/02 11:06:03;;;;;;;92.62;45.30;;;;;;;5.86;86.66;101701.88;1647929;84;21223;-70
2021/03/02 11:08:29;;;;;;;89.87;43.80;;;;;;;5.83;86.75;101698.60;1649074;84;28684;-69
2021/03/02 11:10:55;;;;;;;78.05;41.13;;;;;;;5.87;85.59;101697.48;1650743;84;26882;-69
2021/03/02 11:13:21;;;;;;;87.42;43.33;;;;;;;6.04;85.25;101682.95;1650160;84;21969;-69
2021/03/02 11:15:47;;;;;;;89.05;43.78;;;;;;;6.06;85.08;101706.47;1649558;84;27113;-69
2021/03/02 11:18:13;;;;;;;85.10;42.60;;;;;;;6.11;85.57;101669.88;1647254;84;25357;-69
2021/03/02 11:20:39;;;;;;;86.08;43.25;;;;;;;6.22;84.77;101674.49;1650487;84;28949;-70